Time;durP1;ratioP1;P1;durP2;ratioP2;P2;SDS_P1;SDS_P2;PMS_P1;PMS_P2;Temp;Humidity;BMP_temperature;BMP_pressure;BME280_temperature;BME280_humidity;BME280_pressure;Samples;Min_cycle;Max_cycle;Signal;HPM_P1;HPM_P2
2022/06/23 00:02:07;;;;;;;4.97;4.58;;;;;;;17.17;62.42;98627.10;1757663;79;20901;-67
2022/06/23 00:04:40;;;;;;;8.90;7.95;;;;;;;17.15;62.48;98627.05;1724945;82;20923;-68
2022/06/23 00:07:18;;;;;;;12.00;10.53;;;;;;;17.14;62.40;98624.88;1721350;82;21227;-68
2022/06/23 00:09:49;;;;;;;12.45;11.30;;;;;;;17.15;62.24;98625.15;1720329;82;20948;-72
2022/06/23 00:12:32;;;;;;;13.15;10.40;;;;;;;17.17;62.23;98632.48;1733091;82;20949;-69
2022/06/23 00:15:07;;;;;;;7.92;6.20;;;;;;;17.18;62.36;98631.41;1773961;80;20931;-68
2022/06/23 00:17:44;;;;;;;5.53;4.05;;;;;;;17.20;62.40;98629.84;1757168;80;21408;-67
2022/06/23 00:20:30;;;;;;;4.60;3.90;;;;;;;17.20;62.52;98640.08;1756085;80;21781;-71
2022/06/23 00:23:08;;;;;;;4.20;3.25;;;;;;;17.20;62.61;98645.45;1756836;80;20941;-71
2022/06/23 00:25:49;;;;;;;3.65;3.30;;;;;;;17.17;62.79;98649.12;1758052;80;20941;-70
2022/06/23 00:28:25;;;;;;;5.20;3.83;;;;;;;17.15;63.09;98655.26;1783326;80;20887;-72
2022/06/23 00:30:57;;;;;;;3.20;2.90;;;;;;;17.11;63.31;98656.23;1780764;79;20929;-70
2022/06/23 00:33:27;;;;;;;2.98;2.77;;;;;;;17.06;63.67;98649.92;1756495;80;21218;-67
2022/06/23 00:35:54;;;;;;;2.95;2.75;;;;;;;17.03;63.79;98655.75;1775419;80;20855;-66
2022/06/23 00:38:28;;;;;;;2.92;2.72;;;;;;;16.98;63.75;98656.45;1756613;80;20885;-71
2022/06/23 00:40:55;;;;;;;3.15;2.87;;;;;;;16.93;63.95;98648.27;1756468;80;20937;-67
2022/06/23 00:43:22;;;;;;;3.50;3.20;;;;;;;16.87;64.23;98647.83;1770961;80;20899;-70
2022/06/23 00:46:11;;;;;;;3.22;3.02;;;;;;;16.84;64.24;98651.52;1780633;80;21249;-68
2022/06/23 00:48:43;;;;;;;4.67;3.60;;;;;;;16.80;64.27;98648.47;1787698;80;20970;-67
2022/06/23 00:51:21;;;;;;;3.77;3.33;;;;;;;16.77;64.54;98648.09;1785757;79;20916;-68
2022/06/23 00:54:17;;;;;;;3.87;3.50;;;;;;;16.74;64.75;98638.63;1756734;80;20965;-72
2022/06/23 00:57:01;;;;;;;9.10;6.47;;;;;;;16.69;64.85;98638.50;1774643;80;20926;-67
2022/06/23 00:59:43;;;;;;;4.67;4.20;;;;;;;16.63;64.78;98642.92;1759512;80;21157;-67
2022/06/23 01:02:14;;;;;;;3.65;3.02;;;;;;;16.59;64.84;98637.73;1772428;80;21483;-73
2022/06/23 01:04:55;;;;;;;3.52;2.52;;;;;;;16.54;64.87;98636.25;1769255;80;20926;-73
2022/06/23 01:08:07;;;;;;;2.87;2.20;;;;;;;16.52;64.90;98637.50;1764322;80;21005;-68
2022/06/23 01:11:00;;;;;;;3.80;2.70;;;;;;;16.51;64.84;98642.56;1762269;80;20919;-68
2022/06/23 01:13:48;;;;;;;2.77;2.58;;;;;;;16.46;65.05;98646.45;1761642;80;21498;-67
2022/06/23 01:16:40;;;;;;;3.02;2.65;;;;;;;16.41;65.16;98651.17;1770750;80;20933;-69
2022/06/23 01:19:42;;;;;;;4.12;2.27;;;;;;;16.38;65.19;98650.28;1772542;80;20929;-73
2022/06/23 01:22:23;;;;;;;2.45;2.27;;;;;;;16.34;65.18;98650.97;1765977;80;20887;-71
2022/06/23 01:25:35;;;;;;;2.27;2.10;;;;;;;16.31;65.28;98654.09;1771678;79;20923;-71
2022/06/23 01:28:21;;;;;;;2.33;2.12;;;;;;;16.28;65.43;98654.55;1776298;80;21759;-67
2022/06/23 01:31:02;;;;;;;8.15;2.27;;;;;;;16.25;65.64;98653.14;1761618;80;20933;-68
2022/06/23 01:33:40;;;;;;;2.67;2.47;;;;;;;16.22;65.57;98656.27;1761588;80;21471;-69
2022/06/23 01:36:34;;;;;;;2.45;2.25;;;;;;;16.19;65.57;98653.23;1782284;80;20957;-72
2022/06/23 01:39:18;;;;;;;4.55;2.67;;;;;;;16.13;65.77;98648.25;1774264;80;20854;-71
2022/06/23 01:41:56;;;;;;;3.50;3.20;;;;;;;16.11;65.73;98653.03;1772279;78;21243;-71
2022/06/23 01:44:50;;;;;;;2.85;2.65;;;;;;;16.04;65.94;98657.11;1767340;80;21412;-67
2022/06/23 01:47:36;;;;;;;2.83;2.62;;;;;;;16.02;66.05;98651.67;1765407;80;21649;-71
2022/06/23 01:50:31;;;;;;;;;;;;;;;15.98;66.17;98651.84;1766164;80;20921;-68
2022/06/23 01:53:21;;;;;;;3.58;3.27;;;;;;;15.95;66.31;98657.65;1783775;80;20082;-67
2022/06/23 01:56:06;;;;;;;3.25;2.95;;;;;;;15.90;66.72;98656.95;1788346;80;21336;-66
2022/06/23 01:59:26;;;;;;;3.40;3.10;;;;;;;15.88;66.93;98658.23;1763396;79;20855;-68
2022/06/23 02:02:29;;;;;;;3.47;3.00;;;;;;;15.86;66.90;98660.32;1783850;80;20980;-72
2022/06/23 02:05:35;;;;;;;2.75;2.55;;;;;;;15.81;66.89;98657.48;1782791;80;21287;-71
2022/06/23 02:08:28;;;;;;;3.30;3.00;;;;;;;15.78;66.99;98663.30;1761951;80;20894;-67
2022/06/23 02:11:15;;;;;;;2.87;2.58;;;;;;;15.75;67.19;98656.52;1770720;80;21082;-67
2022/06/23 02:13:58;;;;;;;3.85;3.10;;;;;;;15.74;67.31;98666.97;1745223;80;20993;-70
2022/06/23 02:16:46;;;;;;;4.72;3.08;;;;;;;15.75;67.34;98671.27;1772517;80;20937;-65
2022/06/23 02:19:34;;;;;;;3.02;2.20;;;;;;;15.75;67.68;98676.63;1771798;80;20917;-67
2022/06/23 02:22:21;;;;;;;3.72;1.55;;;;;;;15.72;67.86;98670.91;1764615;80;20937;-69
2022/06/23 02:24:56;;;;;;;2.60;1.40;;;;;;;15.71;68.05;98666.06;1773816;79;21265;-70
2022/06/23 02:27:34;;;;;;;3.33;1.30;;;;;;;15.74;67.97;98668.81;1789856;80;20840;-70
2022/06/23 02:30:13;;;;;;;1.27;1.20;;;;;;;15.78;67.69;98668.14;1774150;79;20968;-65
2022/06/23 02:33:02;;;;;;;1.37;1.27;;;;;;;15.84;67.53;98672.63;1763873;80;20919;-67
2022/06/23 02:35:53;;;;;;;1.45;1.27;;;;;;;15.91;67.30;98672.53;1772850;80;21546;-70
2022/06/23 02:38:38;;;;;;;1.27;1.15;;;;;;;15.95;67.14;98663.84;1782254;80;21248;-68
2022/06/23 02:41:16;;;;;;;1.07;1.07;;;;;;;15.98;67.02;98666.59;1770886;80;20882;-67
2022/06/23 02:44:01;;;;;;;1.57;1.45;;;;;;;16.00;66.87;98663.98;1783746;79;21131;-68
2022/06/23 02:46:52;;;;;;;4.03;1.27;;;;;;;16.03;66.72;98660.03;1765461;80;20996;-69
2022/06/23 02:49:52;;;;;;;1.20;1.20;;;;;;;16.05;66.71;98665.47;1761517;80;20981;-67
2022/06/23 02:52:56;;;;;;;2.72;1.20;;;;;;;16.05;66.65;98664.12;1784436;80;22686;-71
2022/06/23 02:55:52;;;;;;;1.92;1.42;;;;;;;16.08;66.63;98677.61;1775583;80;20909;-67
2022/06/23 02:58:32;;;;;;;1.40;1.30;;;;;;;16.14;66.79;98681.27;1754412;79;21461;-67
2022/06/23 03:01:10;;;;;;;1.87;1.15;;;;;;;16.18;67.09;98679.76;1780402;79;20985;-68
2022/06/23 03:03:48;;;;;;;1.50;1.40;;;;;;;16.22;67.02;98680.42;1764922;80;21516;-67
2022/06/23 03:06:35;;;;;;;2.30;1.52;;;;;;;16.26;67.16;98684.83;1788396;80;21900;-68
2022/06/23 03:09:16;;;;;;;2.05;1.12;;;;;;;16.29;66.95;98682.52;1756826;80;20947;-67
2022/06/23 03:11:53;;;;;;;6.90;1.35;;;;;;;16.34;66.74;98691.23;1778144;80;20887;-66
2022/06/23 03:15:12;;;;;;;2.85;1.30;;;;;;;16.40;66.79;98691.67;1747076;80;20927;-66
2022/06/23 03:17:53;;;;;;;1.87;1.35;;;;;;;16.45;66.76;98688.58;1756790;80;20941;-69
2022/06/23 03:20:38;;;;;;;2.05;1.60;;;;;;;16.53;66.28;98694.19;1760146;80;21325;-73
2022/06/23 03:23:22;;;;;;;1.45;1.35;;;;;;;16.61;66.06;98695.22;1787943;79;20911;-70
2022/06/23 03:26:16;;;;;;;3.10;1.50;;;;;;;16.70;65.66;98684.98;1763557;80;20977;-69
2022/06/23 03:29:06;;;;;;;3.37;1.80;;;;;;;16.79;65.26;98684.42;1761107;80;20880;-68
2022/06/23 03:32:10;;;;;;;4.08;1.25;;;;;;;16.86;64.88;98685.69;1725253;80;20884;-70
2022/06/23 03:34:57;;;;;;;1.75;1.45;;;;;;;16.97;65.14;98684.35;1764883;80;21148;-72
2022/06/23 03:37:49;;;;;;;1.62;1.20;;;;;;;17.07;65.20;98680.61;1781084;80;20875;-68
2022/06/23 03:43:23;;;;;;;4.83;4.30;;;;;;;17.26;65.27;98691.54;1784085;80;20859;-68
2022/06/23 03:46:01;;;;;;;5.47;3.42;;;;;;;17.40;65.09;98694.02;1757109;80;21017;-69
2022/06/23 03:48:39;;;;;;;1.70;1.60;;;;;;;17.51;64.33;98699.93;1773034;80;21211;-71
2022/06/23 03:51:25;;;;;;;2.47;1.82;;;;;;;17.54;63.45;98696.81;1775463;80;21521;-68
2022/06/23 03:54:06;;;;;;;3.00;1.35;;;;;;;17.51;63.05;98703.96;1767109;80;21552;-72
2022/06/23 03:56:44;;;;;;;2.10;1.62;;;;;;;17.44;63.02;98708.64;1761516;80;20913;-68
2022/06/23 03:59:28;;;;;;;1.37;1.27;;;;;;;17.37;63.10;98709.25;1755388;80;20885;-67
2022/06/23 04:01:58;;;;;;;1.55;1.40;;;;;;;17.33;63.02;98708.09;1732417;81;21105;-68
2022/06/23 04:04:58;;;;;;;1.60;1.50;;;;;;;17.28;62.97;98713.63;1750852;81;20864;-65
2022/06/23 04:07:32;;;;;;;2.00;1.62;;;;;;;17.22;63.04;98715.09;1754141;81;21464;-72
2022/06/23 04:10:09;;;;;;;1.95;1.72;;;;;;;17.14;63.13;98712.22;1762875;81;20935;-68
2022/06/23 04:12:37;;;;;;;3.58;1.75;;;;;;;17.08;63.36;98713.13;1732459;81;21496;-68
2022/06/23 04:15:08;;;;;;;5.87;4.00;;;;;;;17.04;63.58;98712.48;1761639;80;21313;-68
2022/06/23 04:17:44;;;;;;;4.17;2.87;;;;;;;16.99;63.83;98717.20;1747777;81;20825;-67
2022/06/23 04:20:16;;;;;;;3.60;2.30;;;;;;;16.98;64.08;98720.11;1739534;81;20909;-67
2022/06/23 04:23:14;;;;;;;3.58;2.80;;;;;;;16.99;64.16;98722.58;1732683;81;20863;-67
2022/06/23 04:25:51;;;;;;;4.90;2.25;;;;;;;17.01;64.18;98727.20;1734889;81;21447;-69
2022/06/23 04:28:44;;;;;;;2.20;1.77;;;;;;;17.06;64.17;98727.33;1732332;81;21133;-70
2022/06/23 04:31:21;;;;;;;2.30;1.87;;;;;;;17.09;64.23;98729.55;1747892;80;21506;-67
2022/06/23 04:33:48;;;;;;;5.28;3.02;;;;;;;17.14;64.18;98731.55;1753187;81;21449;-68
2022/06/23 04:36:21;;;;;;;3.92;2.62;;;;;;;17.20;64.09;98728.77;1749473;81;20977;-68
2022/06/23 04:39:02;;;;;;;2.37;2.15;;;;;;;17.28;64.03;98736.47;1751126;81;20974;-67
2022/06/23 04:41:36;;;;;;;4.33;2.90;;;;;;;17.35;63.93;98746.31;1741038;81;21149;-72
2022/06/23 04:44:06;;;;;;;5.00;3.33;;;;;;;17.41;63.83;98744.88;1771286;80;20872;-69
2022/06/23 04:46:40;;;;;;;3.40;2.42;;;;;;;17.47;63.76;98749.86;1764635;80;20974;-72
2022/06/23 04:49:32;;;;;;;4.40;3.10;;;;;;;17.54;63.58;98746.04;1746951;81;21090;-67
2022/06/23 04:52:13;;;;;;;5.72;3.10;;;;;;;17.63;63.30;98750.53;1745954;81;21548;-67
2022/06/23 04:54:57;;;;;;;3.72;3.00;;;;;;;17.73;63.00;98753.45;1771107;80;21168;-67
2022/06/23 04:57:41;;;;;;;4.12;3.40;;;;;;;17.84;62.73;98756.68;1769054;79;21458;-69
2022/06/23 05:00:32;;;;;;;4.33;3.55;;;;;;;17.95;62.50;98764.46;1773917;80;20917;-69
2022/06/23 05:03:04;;;;;;;7.17;3.65;;;;;;;18.09;62.17;98764.52;1782186;80;20887;-68
2022/06/23 05:05:34;;;;;;;3.87;3.42;;;;;;;18.18;61.90;98757.19;1779987;80;21045;-67
2022/06/23 05:08:12;;;;;;;4.42;3.98;;;;;;;18.30;61.63;98761.22;1769115;80;22085;-70
2022/06/23 05:10:51;;;;;;;7.95;4.60;;;;;;;18.41;61.52;98761.70;1775171;80;20997;-67
2022/06/23 05:13:21;;;;;;;3.35;3.05;;;;;;;18.54;61.10;98761.47;1787581;79;21445;-68
2022/06/23 05:16:09;;;;;;;4.70;2.60;;;;;;;18.65;60.66;98769.23;1767839;80;21029;-67
2022/06/23 05:18:47;;;;;;;5.80;2.58;;;;;;;18.76;60.42;98773.77;1764476;80;21523;-73
2022/06/23 05:21:22;;;;;;;3.85;2.60;;;;;;;18.91;59.97;98771.36;1762585;80;21254;-68
2022/06/23 05:23:59;;;;;;;2.90;2.50;;;;;;;19.03;59.74;98772.95;1773956;80;20902;-71
2022/06/23 05:26:42;;;;;;;6.45;2.80;;;;;;;19.19;59.39;98776.73;1773955;80;21624;-71
2022/06/23 05:29:24;;;;;;;5.55;2.70;;;;;;;19.36;59.18;98780.82;1780863;80;21021;-66
2022/06/23 05:31:55;;;;;;;3.50;2.90;;;;;;;19.55;58.72;98786.32;1750062;80;21053;-66
2022/06/23 05:34:29;;;;;;;4.75;2.62;;;;;;;19.69;58.35;98789.78;1765885;80;21253;-67
2022/06/23 05:37:07;;;;;;;5.03;2.55;;;;;;;19.85;57.96;98791.38;1772151;80;21014;-69
2022/06/23 05:39:48;;;;;;;7.35;3.25;;;;;;;20.02;57.65;98782.74;1790042;79;21547;-67
2022/06/23 05:42:26;;;;;;;3.45;2.70;;;;;;;20.16;56.84;98792.94;1765461;79;20981;-67
2022/06/23 05:44:56;;;;;;;5.40;2.90;;;;;;;20.26;56.35;98786.36;1773008;80;21043;-66
2022/06/23 05:47:23;;;;;;;3.58;3.27;;;;;;;20.38;55.92;98790.31;1760805;80;21230;-70
2022/06/23 05:49:55;;;;;;;2.33;2.12;;;;;;;20.55;55.68;98788.89;1778002;79;20996;-70
2022/06/23 05:52:42;;;;;;;3.45;2.00;;;;;;;20.73;55.06;98789.40;1762985;80;21053;-68
2022/06/23 05:55:32;;;;;;;2.45;2.15;;;;;;;20.86;54.37;98794.95;1781447;78;20977;-66
2022/06/23 05:58:15;;;;;;;2.30;1.75;;;;;;;21.01;54.07;98791.63;1768709;79;21033;-66
2022/06/23 06:00:49;;;;;;;1.75;1.50;;;;;;;21.18;53.67;98789.66;1697540;82;22066;-69
2022/06/23 06:03:30;;;;;;;2.55;1.32;;;;;;;21.31;52.94;98791.42;1779810;80;20947;-65
2022/06/23 06:06:00;;;;;;;2.77;1.70;;;;;;;21.48;52.88;98791.33;1765796;80;21070;-65
2022/06/23 06:09:35;;;;;;;2.92;1.92;;;;;;;21.67;52.36;98798.50;1765495;78;21014;-68
2022/06/23 06:11:06;;;;;;;2.77;2.33;;;;;;;21.80;52.08;98798.89;1754336;80;21052;-65
2022/06/23 06:13:35;;;;;;;5.33;2.60;;;;;;;21.96;51.86;98799.85;1764997;80;21242;-66
2022/06/23 06:16:04;;;;;;;6.17;2.62;;;;;;;22.10;51.53;98803.22;1777555;80;20969;-68
2022/06/23 06:18:35;;;;;;;5.22;2.98;;;;;;;22.20;50.92;98803.82;1777644;80;21048;-65
2022/06/23 06:21:04;;;;;;;3.87;3.10;;;;;;;22.26;50.56;98802.78;1758353;80;22171;-63
2022/06/23 06:24:02;;;;;;;3.12;2.83;;;;;;;22.35;50.38;98805.80;1779765;80;20993;-66
2022/06/23 06:26:35;;;;;;;5.50;3.02;;;;;;;22.38;50.15;98806.09;1788069;78;21654;-67
2022/06/23 06:29:23;;;;;;;4.17;2.90;;;;;;;22.43;50.11;98812.08;1769592;80;20980;-65
2022/06/23 06:32:00;;;;;;;3.30;2.50;;;;;;;22.46;50.25;98808.84;1773680;80;20934;-68
2022/06/23 06:34:35;;;;;;;4.42;3.50;;;;;;;22.49;50.25;98814.56;1771501;78;21013;-66
2022/06/23 06:37:03;;;;;;;6.80;3.20;;;;;;;22.58;50.54;98812.97;1787342;80;20927;-67
2022/06/23 06:39:38;;;;;;;2.45;2.27;;;;;;;22.74;50.62;98814.70;1786171;80;21264;-66
2022/06/23 06:42:14;;;;;;;3.45;2.22;;;;;;;22.90;50.04;98815.59;1783272;80;20867;-64
2022/06/23 06:44:44;;;;;;;3.55;2.20;;;;;;;23.02;49.44;98823.51;1784319;80;20919;-64
2022/06/23 06:47:15;;;;;;;2.70;2.00;;;;;;;23.13;49.17;98815.12;1775048;78;21020;-67
2022/06/23 06:49:42;;;;;;;4.17;2.10;;;;;;;23.24;49.06;98819.50;1785457;80;20898;-66
2022/06/23 06:52:09;;;;;;;4.87;2.92;;;;;;;23.42;49.35;98817.38;1776038;80;21214;-65
2022/06/23 06:55:03;;;;;;;3.27;2.12;;;;;;;23.63;49.28;98817.14;1778865;80;21023;-64
2022/06/23 06:57:46;;;;;;;3.55;2.25;;;;;;;23.81;48.72;98818.50;1773238;80;20926;-64
2022/06/23 07:00:21;;;;;;;3.58;2.10;;;;;;;23.98;48.74;98821.77;1765349;79;20871;-67
2022/06/23 07:02:52;;;;;;;6.60;2.70;;;;;;;24.11;47.79;98822.61;1768746;80;20942;-66
2022/06/23 07:05:57;;;;;;;3.67;2.67;;;;;;;24.16;47.26;98824.50;1760245;79;21268;-66
2022/06/23 07:08:30;;;;;;;4.10;2.67;;;;;;;24.20;47.29;98831.83;1773615;80;20981;-64
2022/06/23 07:11:10;;;;;;;3.95;2.37;;;;;;;24.13;47.08;98829.94;1772998;80;20977;-63
2022/06/23 07:13:51;;;;;;;3.47;2.17;;;;;;;24.04;47.32;98830.17;1776823;79;21002;-64
2022/06/23 07:16:43;;;;;;;5.12;2.10;;;;;;;23.98;47.59;98831.82;1758711;80;21005;-66
2022/06/23 07:19:31;;;;;;;4.65;2.45;;;;;;;24.02;48.02;98827.45;1783717;79;21171;-66
2022/06/23 07:22:24;;;;;;;4.67;2.20;;;;;;;24.14;47.91;98834.84;1772085;80;21029;-67
2022/06/23 07:25:20;;;;;;;3.30;1.65;;;;;;;24.22;47.94;98835.08;1765999;80;20955;-69
2022/06/23 07:27:55;;;;;;;2.52;2.00;;;;;;;24.35;47.64;98826.36;1777200;78;21009;-64
2022/06/23 07:30:30;;;;;;;3.30;1.62;;;;;;;24.66;47.34;98825.75;1768914;80;20917;-65
2022/06/23 07:33:17;;;;;;;1.90;1.80;;;;;;;24.99;46.72;98820.20;1778849;80;21223;-67
2022/06/23 07:35:57;;;;;;;2.62;1.80;;;;;;;25.31;45.87;98826.03;1766357;80;21392;-67
2022/06/23 07:38:38;;;;;;;2.05;1.47;;;;;;;25.56;45.06;98825.89;1777410;79;20882;-65
2022/06/23 07:41:41;;;;;;;2.70;1.10;;;;;;;25.65;43.74;98821.45;1769528;80;21520;-66
2022/06/23 07:44:28;;;;;;;2.40;1.60;;;;;;;25.64;43.14;98825.84;1768916;80;20966;-64
2022/06/23 07:46:54;;;;;;;2.37;1.60;;;;;;;25.58;42.83;98829.14;1775963;80;21277;-65
2022/06/23 07:49:21;;;;;;;2.60;1.60;;;;;;;25.41;42.63;98832.77;1783099;78;20926;-65
2022/06/23 07:51:47;;;;;;;2.45;1.70;;;;;;;25.36;43.05;98836.89;1763268;80;20919;-66
2022/06/23 07:54:16;;;;;;;2.10;1.77;;;;;;;25.31;43.28;98838.28;1773233;79;20894;-64
2022/06/23 07:56:43;;;;;;;2.12;1.40;;;;;;;25.32;43.27;98837.17;1776006;80;21009;-68
2022/06/23 07:59:15;;;;;;;3.47;1.30;;;;;;;25.30;43.19;98839.37;1768480;80;21483;-65
2022/06/23 08:02:04;;;;;;;2.87;1.27;;;;;;;25.31;43.26;98836.10;1782794;80;20875;-65
2022/06/23 08:04:55;;;;;;;2.15;1.27;;;;;;;25.30;43.37;98834.46;1771749;80;20889;-68
2022/06/23 08:07:21;;;;;;;4.30;1.30;;;;;;;25.33;43.77;98842.89;1777090;80;21378;-67
2022/06/23 08:09:52;;;;;;;3.20;1.30;;;;;;;25.42;43.77;98844.48;1769486;80;21435;-65
2022/06/23 08:18:09;;;;;;;4.17;1.47;;;;;;;25.82;43.19;98846.12;1772781;80;20897;-65
2022/06/23 08:20:39;;;;;;;2.65;1.40;;;;;;;26.03;43.08;98842.14;1765770;80;20966;-68
2022/06/23 08:23:06;;;;;;;2.90;1.50;;;;;;;26.26;42.67;98844.95;1773536;80;21404;-68
2022/06/23 08:25:34;;;;;;;5.30;1.55;;;;;;;26.53;42.26;98837.61;1759087;80;21301;-66
2022/06/23 08:28:01;;;;;;;3.77;1.70;;;;;;;26.98;41.79;98842.31;1758986;80;20976;-67
2022/06/23 08:30:27;;;;;;;5.30;1.70;;;;;;;27.44;40.60;98840.62;1783210;78;21065;-65
2022/06/23 08:32:55;;;;;;;3.33;1.70;;;;;;;27.83;39.67;98838.92;1784926;79;20909;-67
2022/06/23 08:35:33;;;;;;;2.98;1.37;;;;;;;28.30;39.02;98837.89;1774436;80;20856;-66
2022/06/23 08:38:12;;;;;;;4.20;1.50;;;;;;;28.86;37.93;98839.87;1768305;80;21153;-65
2022/06/23 08:41:23;;;;;;;3.22;1.30;;;;;;;29.79;36.98;98835.66;1772412;79;20889;-65
2022/06/23 08:44:04;;;;;;;6.90;1.27;;;;;;;30.91;34.87;98834.39;1719018;82;21008;-66
2022/06/23 08:47:04;;;;;;;1.40;1.30;;;;;;;31.68;33.03;98833.16;1733865;82;20920;-67
2022/06/23 08:49:39;;;;;;;3.60;1.42;;;;;;;32.02;32.26;98830.98;1759031;79;20980;-65
2022/06/23 08:52:26;;;;;;;1.77;1.10;;;;;;;32.63;31.20;98831.91;1770991;80;21221;-67
2022/06/23 08:55:09;;;;;;;1.20;1.10;;;;;;;34.45;28.78;98828.88;1764458;79;21412;-65
2022/06/23 08:57:50;;;;;;;2.87;1.20;;;;;;;36.59;25.99;98830.31;1759163;80;20889;-67
2022/06/23 09:00:36;;;;;;;0.98;0.98;;;;;;;36.94;24.38;98825.67;1788760;80;21731;-64
2022/06/23 09:03:13;;;;;;;3.92;1.30;;;;;;;36.11;25.10;98828.63;1766512;79;20854;-66
2022/06/23 09:05:50;;;;;;;3.55;1.10;;;;;;;34.75;25.75;98839.41;1764945;80;21892;-67
2022/06/23 09:09:03;;;;;;;1.52;1.10;;;;;;;33.65;27.13;98844.08;1779689;80;21009;-65
2022/06/23 09:11:45;;;;;;;1.17;1.07;;;;;;;32.69;28.60;98855.38;1773815;79;21449;-63
2022/06/23 09:14:37;;;;;;;1.60;1.17;;;;;;;31.38;29.89;98859.64;1767739;80;20945;-64
2022/06/23 09:17:41;;;;;;;1.87;1.20;;;;;;;30.43;30.96;98860.38;1761383;79;21487;-66
2022/06/23 09:20:55;;;;;;;2.30;1.37;;;;;;;29.68;32.17;98863.02;1756650;80;21198;-65
2022/06/23 09:23:27;;;;;;;2.47;1.30;;;;;;;28.94;33.83;98866.50;1756642;80;20881;-66
2022/06/23 09:26:40;;;;;;;7.60;1.30;;;;;;;28.51;35.23;98867.31;1756795;80;20842;-66
2022/06/23 09:29:45;;;;;;;4.10;1.30;;;;;;;28.14;35.76;98872.89;1756716;80;21008;-65
2022/06/23 09:32:26;;;;;;;1.22;1.12;;;;;;;27.69;36.60;98873.02;1775077;80;20844;-66
2022/06/23 09:34:58;;;;;;;4.12;1.55;;;;;;;27.48;37.09;98876.59;1756303;80;21122;-66
2022/06/23 09:37:36;;;;;;;1.70;1.15;;;;;;;27.39;37.20;98877.53;1756141;80;20889;-68
2022/06/23 09:40:20;;;;;;;1.40;1.10;;;;;;;27.34;37.41;98879.78;1765627;80;20941;-66
2022/06/23 09:43:39;;;;;;;3.10;1.02;;;;;;;27.38;37.55;98873.98;1757641;80;20969;-68
2022/06/23 09:46:37;;;;;;;1.40;1.20;;;;;;;27.54;37.57;98869.15;1771354;81;20888;-64
2022/06/23 09:49:21;;;;;;;1.10;0.98;;;;;;;27.84;36.65;98875.55;1734455;82;21410;-65
2022/06/23 09:52:23;;;;;;;0.85;0.85;;;;;;;27.98;36.14;98876.39;1746991;82;20990;-65
2022/06/23 09:55:13;;;;;;;1.05;0.90;;;;;;;28.11;35.46;98883.05;1787738;78;20958;-65
2022/06/23 09:57:54;;;;;;;4.37;1.05;;;;;;;28.28;34.90;98874.30;1770378;79;21043;-65
2022/06/23 10:00:37;;;;;;;1.35;1.07;;;;;;;28.64;34.87;98870.66;1778629;80;21018;-68
2022/06/23 10:03:12;;;;;;;1.12;1.00;;;;;;;29.03;34.72;98868.80;1782862;80;21139;-65
2022/06/23 10:05:47;;;;;;;2.40;0.90;;;;;;;29.96;33.52;98864.56;1761762;80;21000;-65
2022/06/23 10:08:23;;;;;;;2.10;1.07;;;;;;;31.12;31.81;98858.77;1761715;80;20925;-66
2022/06/23 10:11:20;;;;;;;2.12;0.90;;;;;;;31.65;31.11;98860.73;1761652;80;20958;-66
2022/06/23 10:14:25;;;;;;;0.90;0.90;;;;;;;31.77;30.89;98858.73;1761613;80;21020;-68
2022/06/23 10:17:19;;;;;;;1.52;1.10;;;;;;;31.71;30.66;98864.95;1783548;80;22114;-66
2022/06/23 10:19:58;;;;;;;1.60;1.27;;;;;;;31.49;30.40;98865.11;1778706;80;20907;-65
2022/06/23 10:23:04;;;;;;;1.00;0.90;;;;;;;31.00;31.01;98862.70;1753652;80;20854;-66
2022/06/23 10:25:55;;;;;;;1.57;1.00;;;;;;;30.38;31.89;98867.38;1718207;78;20969;-64
2022/06/23 10:28:45;;;;;;;2.52;1.30;;;;;;;29.59;33.19;98873.11;1787393;78;20916;-66
2022/06/23 10:31:23;;;;;;;1.80;1.05;;;;;;;28.78;34.35;98883.55;1776921;80;21137;-68
2022/06/23 10:34:07;;;;;;;1.65;1.12;;;;;;;28.01;35.54;98897.70;1775352;80;21518;-67
2022/06/23 10:37:12;;;;;;;1.85;1.20;;;;;;;27.44;36.77;98891.14;1783886;80;20958;-68
2022/06/23 10:39:55;;;;;;;1.20;1.07;;;;;;;26.89;37.80;98892.07;1766381;80;20923;-65
2022/06/23 10:42:46;;;;;;;1.70;1.45;;;;;;;26.49;38.75;98887.00;1774993;80;21412;-68
2022/06/23 10:45:33;;;;;;;1.90;1.27;;;;;;;26.30;39.32;98888.83;1771882;80;21273;-65
2022/06/23 10:48:08;;;;;;;2.65;1.30;;;;;;;26.16;39.85;98887.31;1761558;80;20980;-66
2022/06/23 10:51:08;;;;;;;1.70;1.10;;;;;;;26.06;39.90;98896.08;1760955;80;20898;-66
2022/06/23 10:54:14;;;;;;;1.25;1.15;;;;;;;26.01;40.24;98888.77;1770709;80;20934;-66
2022/06/23 10:57:09;;;;;;;1.30;1.20;;;;;;;25.99;40.39;98885.52;1792931;80;20899;-66
2022/06/23 11:00:02;;;;;;;2.67;1.20;;;;;;;26.00;40.08;98884.95;1772317;79;21407;-66
2022/06/23 11:02:44;;;;;;;2.33;1.50;;;;;;;26.02;40.07;98885.50;1769990;80;21027;-65
2022/06/23 11:05:35;;;;;;;1.32;1.20;;;;;;;26.04;40.19;98881.94;1732034;79;21011;-67
2022/06/23 11:08:16;;;;;;;2.40;1.80;;;;;;;26.09;40.16;98887.34;1781734;80;20899;-65
2022/06/23 11:11:07;;;;;;;4.25;1.70;;;;;;;26.28;40.17;98882.86;1782329;80;20921;-65
2022/06/23 11:13:51;;;;;;;1.90;1.65;;;;;;;26.54;40.20;98895.13;1765018;78;21300;-66
2022/06/23 11:16:33;;;;;;;4.42;1.67;;;;;;;26.80;39.56;98895.16;1775719;80;20989;-66
2022/06/23 11:19:22;;;;;;;5.83;1.77;;;;;;;27.05;39.17;98889.98;1783711;80;21020;-66
2022/06/23 11:22:09;;;;;;;3.08;1.40;;;;;;;27.21;38.67;98895.52;1783628;80;20927;-64
2022/06/23 11:25:05;;;;;;;5.00;1.40;;;;;;;27.25;38.20;98894.36;1761753;80;20948;-65
2022/06/23 11:28:24;;;;;;;2.20;1.60;;;;;;;27.14;38.51;98905.95;1792334;80;21197;-66
2022/06/23 11:31:40;;;;;;;2.22;1.42;;;;;;;27.07;38.72;98900.59;1714517;82;20962;-66
2022/06/23 11:34:34;;;;;;;1.65;1.55;;;;;;;27.01;38.84;98904.50;1703712;84;21003;-67
2022/06/23 11:37:30;;;;;;;2.05;1.52;;;;;;;27.00;39.21;98906.96;1756391;81;21031;-68
2022/06/23 11:40:26;;;;;;;2.95;1.60;;;;;;;27.02;39.43;98897.38;1718222;82;20948;-67
2022/06/23 11:43:19;;;;;;;1.42;1.32;;;;;;;27.13;39.68;98896.16;1665201;83;21280;-67
2022/06/23 11:46:10;;;;;;;3.12;1.40;;;;;;;27.25;39.34;98898.45;1744535;81;20870;-65
2022/06/23 11:49:04;;;;;;;3.50;1.47;;;;;;;27.36;39.07;98901.33;1757545;81;20914;-68
2022/06/23 11:52:00;;;;;;;1.60;1.35;;;;;;;27.53;38.91;98891.55;1758029;81;20992;-68
2022/06/23 11:54:42;;;;;;;3.52;1.40;;;;;;;27.59;38.35;98892.30;1757445;81;20926;-66
2022/06/23 11:57:32;;;;;;;2.75;1.40;;;;;;;27.58;38.30;98885.77;1758094;81;21255;-64
2022/06/23 12:00:10;;;;;;;2.65;1.45;;;;;;;27.56;38.56;98879.22;1758058;81;20918;-64
2022/06/23 12:03:00;;;;;;;1.72;1.62;;;;;;;27.48;38.64;98880.70;1754139;81;20906;-65
2022/06/23 12:05:44;;;;;;;4.47;1.22;;;;;;;27.39;37.64;98876.16;1749826;82;20851;-67
2022/06/23 12:08:46;;;;;;;2.00;1.12;;;;;;;27.20;37.64;98884.88;1747363;82;20969;-64
2022/06/23 12:11:12;;;;;;;1.70;1.20;;;;;;;26.98;37.74;98888.70;1742116;82;21175;-63
2022/06/23 12:13:39;;;;;;;1.40;1.15;;;;;;;26.78;38.34;98887.82;1750089;82;20898;-64
2022/06/23 12:16:06;;;;;;;1.52;1.30;;;;;;;26.73;38.77;98884.30;1750077;82;20891;-66
2022/06/23 12:18:59;;;;;;;1.80;1.20;;;;;;;26.68;39.14;98887.91;1749961;82;21006;-65
2022/06/23 12:21:42;;;;;;;1.45;1.10;;;;;;;26.65;39.79;98883.02;1749680;82;20879;-65
2022/06/23 12:24:33;;;;;;;1.15;0.70;;;;;;;26.64;39.73;98890.95;1749821;82;21469;-65
2022/06/23 12:27:24;;;;;;;2.22;0.75;;;;;;;26.67;37.99;98886.84;1735615;82;21528;-66
2022/06/23 12:30:10;;;;;;;1.57;1.00;;;;;;;26.64;37.65;98875.95;1749748;82;20922;-68
2022/06/23 12:33:03;;;;;;;1.02;0.90;;;;;;;26.62;37.26;98889.05;1728697;82;21005;-65
2022/06/23 12:36:11;;;;;;;1.35;1.00;;;;;;;26.60;37.74;98884.98;1749783;82;20986;-65
2022/06/23 12:38:44;;;;;;;;;;;;;;;26.65;38.17;98895.30;1752440;82;21157;-65
2022/06/23 12:41:25;;;;;;;2.85;1.07;;;;;;;26.81;37.25;98886.42;1710433;83;20098;-65
2022/06/23 12:44:02;;;;;;;1.95;0.90;;;;;;;26.87;36.66;98887.46;1716958;82;20944;-66
2022/06/23 12:47:21;;;;;;;5.45;1.15;;;;;;;26.87;36.99;98887.46;1704879;83;21518;-65
2022/06/23 12:50:02;;;;;;;0.90;0.90;;;;;;;26.85;36.45;98888.28;1706547;82;21503;-69
2022/06/23 12:52:51;;;;;;;2.60;1.00;;;;;;;26.77;36.16;98888.13;1701867;83;21809;-65
2022/06/23 12:55:44;;;;;;;1.15;0.88;;;;;;;26.74;36.46;98889.48;1708927;83;21066;-67
2022/06/23 12:58:34;;;;;;;3.33;0.90;;;;;;;26.82;36.80;98887.52;1712871;82;20950;-66
2022/06/23 13:01:37;;;;;;;2.67;1.10;;;;;;;26.94;36.79;98889.83;1686794;84;21133;-65